sensor_id;sensor_type;location;lat;lon;timestamp;P1;P2;P0
79689;PMS5003;69156;55.932;-3.238;2023-07-31T00:01:22;1;1;
79689;PMS5003;69156;55.932;-3.238;2023-07-31T00:03:48;2;2;
79689;PMS5003;69156;55.932;-3.238;2023-07-31T00:06:13;2;2;
79689;PMS5003;69156;55.932;-3.238;2023-07-31T00:08:38;1;1;
79689;PMS5003;69156;55.932;-3.238;2023-07-31T00:11:03;3;3;
79689;PMS5003;69156;55.932;-3.238;2023-07-31T00:13:30;1;1;
79689;PMS5003;69156;55.932;-3.238;2023-07-31T00:15:55;4;3;
79689;PMS5003;69156;55.932;-3.238;2023-07-31T00:18:21;2;2;
79689;PMS5003;69156;55.932;-3.238;2023-07-31T00:20:47;3;3;
79689;PMS5003;69156;55.932;-3.238;2023-07-31T00:23:13;1;1;
79689;PMS5003;69156;55.932;-3.238;2023-07-31T00:25:39;3;3;
79689;PMS5003;69156;55.932;-3.238;2023-07-31T00:28:04;2;2;
79689;PMS5003;69156;55.932;-3.238;2023-07-31T00:30:29;2;2;
79689;PMS5003;69156;55.932;-3.238;2023-07-31T00:32:54;3;3;
79689;PMS5003;69156;55.932;-3.238;2023-07-31T00:35:19;2;2;
79689;PMS5003;69156;55.932;-3.238;2023-07-31T00:37:45;2;2;
79689;PMS5003;69156;55.932;-3.238;2023-07-31T00:40:10;3;3;
79689;PMS5003;69156;55.932;-3.238;2023-07-31T00:42:35;2;2;
79689;PMS5003;69156;55.932;-3.238;2023-07-31T00:45:00;2;2;
79689;PMS5003;69156;55.932;-3.238;2023-07-31T00:47:26;2;2;
79689;PMS5003;69156;55.932;-3.238;2023-07-31T00:49:51;2;2;
79689;PMS5003;69156;55.932;-3.238;2023-07-31T00:52:16;3;3;
79689;PMS5003;69156;55.932;-3.238;2023-07-31T00:54:41;3;3;
79689;PMS5003;69156;55.932;-3.238;2023-07-31T00:57:07;3;3;
79689;PMS5003;69156;55.932;-3.238;2023-07-31T00:59:34;2;2;
79689;PMS5003;69156;55.932;-3.238;2023-07-31T01:01:59;2;2;
79689;PMS5003;69156;55.932;-3.238;2023-07-31T01:04:25;4;3;
79689;PMS5003;69156;55.932;-3.238;2023-07-31T01:06:52;3;3;
79689;PMS5003;69156;55.932;-3.238;2023-07-31T01:09:18;1;1;
79689;PMS5003;69156;55.932;-3.238;2023-07-31T01:11:43;2;2;
79689;PMS5003;69156;55.932;-3.238;2023-07-31T01:14:07;2;2;
79689;PMS5003;69156;55.932;-3.238;2023-07-31T01:16:32;3;2;
79689;PMS5003;69156;55.932;-3.238;2023-07-31T01:18:59;4;2;
79689;PMS5003;69156;55.932;-3.238;2023-07-31T01:21:30;2;2;
79689;PMS5003;69156;55.932;-3.238;2023-07-31T01:23:54;3;3;
79689;PMS5003;69156;55.932;-3.238;2023-07-31T01:26:16;3;3;
79689;PMS5003;69156;55.932;-3.238;2023-07-31T01:28:44;2;2;
79689;PMS5003;69156;55.932;-3.238;2023-07-31T01:31:07;3;3;
79689;PMS5003;69156;55.932;-3.238;2023-07-31T01:33:32;2;2;
79689;PMS5003;69156;55.932;-3.238;2023-07-31T01:35:57;3;3;
79689;PMS5003;69156;55.932;-3.238;2023-07-31T01:38:23;2;2;
79689;PMS5003;69156;55.932;-3.238;2023-07-31T01:40:50;2;2;
79689;PMS5003;69156;55.932;-3.238;2023-07-31T01:43:14;2;2;
79689;PMS5003;69156;55.932;-3.238;2023-07-31T01:45:39;3;3;
79689;PMS5003;69156;55.932;-3.238;2023-07-31T01:48:04;3;3;
79689;PMS5003;69156;55.932;-3.238;2023-07-31T01:50:30;2;2;
79689;PMS5003;69156;55.932;-3.238;2023-07-31T01:52:55;4;4;
79689;PMS5003;69156;55.932;-3.238;2023-07-31T01:55:21;3;3;
79689;PMS5003;69156;55.932;-3.238;2023-07-31T01:57:46;3;3;
79689;PMS5003;69156;55.932;-3.238;2023-07-31T02:00:12;3;3;
79689;PMS5003;69156;55.932;-3.238;2023-07-31T02:02:37;2;2;
79689;PMS5003;69156;55.932;-3.238;2023-07-31T02:05:03;4;3;
79689;PMS5003;69156;55.932;-3.238;2023-07-31T02:07:28;2;2;
79689;PMS5003;69156;55.932;-3.238;2023-07-31T02:09:54;2;2;
79689;PMS5003;69156;55.932;-3.238;2023-07-31T02:12:19;4;4;
79689;PMS5003;69156;55.932;-3.238;2023-07-31T02:14:44;3;3;
79689;PMS5003;69156;55.932;-3.238;2023-07-31T02:17:09;2;2;
79689;PMS5003;69156;55.932;-3.238;2023-07-31T02:19:35;3;3;
79689;PMS5003;69156;55.932;-3.238;2023-07-31T02:22:00;2;2;
79689;PMS5003;69156;55.932;-3.238;2023-07-31T02:24:26;2;2;
79689;PMS5003;69156;55.932;-3.238;2023-07-31T02:26:51;3;3;
79689;PMS5003;69156;55.932;-3.238;2023-07-31T02:29:17;4;3;
79689;PMS5003;69156;55.932;-3.238;2023-07-31T02:31:42;3;3;
79689;PMS5003;69156;55.932;-3.238;2023-07-31T02:34:08;1;1;
79689;PMS5003;69156;55.932;-3.238;2023-07-31T02:36:34;2;2;
79689;PMS5003;69156;55.932;-3.238;2023-07-31T02:39:00;4;4;
79689;PMS5003;69156;55.932;-3.238;2023-07-31T02:41:26;3;3;
79689;PMS5003;69156;55.932;-3.238;2023-07-31T02:43:52;4;4;
79689;PMS5003;69156;55.932;-3.238;2023-07-31T02:46:18;3;3;
79689;PMS5003;69156;55.932;-3.238;2023-07-31T02:48:43;4;4;
79689;PMS5003;69156;55.932;-3.238;2023-07-31T02:51:09;4;3;
79689;PMS5003;69156;55.932;-3.238;2023-07-31T02:53:34;3;3;
79689;PMS5003;69156;55.932;-3.238;2023-07-31T02:55:59;5;5;
79689;PMS5003;69156;55.932;-3.238;2023-07-31T02:58:24;6;6;
79689;PMS5003;69156;55.932;-3.238;2023-07-31T03:00:50;4;4;
79689;PMS5003;69156;55.932;-3.238;2023-07-31T03:03:15;5;5;
79689;PMS5003;69156;55.932;-3.238;2023-07-31T03:05:41;4;4;
79689;PMS5003;69156;55.932;-3.238;2023-07-31T03:08:06;4;4;
79689;PMS5003;69156;55.932;-3.238;2023-07-31T03:10:31;3;3;
79689;PMS5003;69156;55.932;-3.238;2023-07-31T03:12:57;3;3;
79689;PMS5003;69156;55.932;-3.238;2023-07-31T03:15:23;3;3;
79689;PMS5003;69156;55.932;-3.238;2023-07-31T03:17:49;4;4;
79689;PMS5003;69156;55.932;-3.238;2023-07-31T03:20:14;3;3;
79689;PMS5003;69156;55.932;-3.238;2023-07-31T03:22:40;4;4;
79689;PMS5003;69156;55.932;-3.238;2023-07-31T03:25:05;4;4;
79689;PMS5003;69156;55.932;-3.238;2023-07-31T03:27:30;4;3;
79689;PMS5003;69156;55.932;-3.238;2023-07-31T03:29:55;3;3;
79689;PMS5003;69156;55.932;-3.238;2023-07-31T03:32:21;3;3;
79689;PMS5003;69156;55.932;-3.238;2023-07-31T03:34:46;4;4;
79689;PMS5003;69156;55.932;-3.238;2023-07-31T03:37:12;4;4;
79689;PMS5003;69156;55.932;-3.238;2023-07-31T03:39:37;5;5;
79689;PMS5003;69156;55.932;-3.238;2023-07-31T03:42:03;4;4;
79689;PMS5003;69156;55.932;-3.238;2023-07-31T03:44:28;5;4;
79689;PMS5003;69156;55.932;-3.238;2023-07-31T03:46:53;4;4;
79689;PMS5003;69156;55.932;-3.238;2023-07-31T03:49:18;3;3;
79689;PMS5003;69156;55.932;-3.238;2023-07-31T03:51:44;5;4;
79689;PMS5003;69156;55.932;-3.238;2023-07-31T03:54:09;4;4;
79689;PMS5003;69156;55.932;-3.238;2023-07-31T03:56:35;3;3;
79689;PMS5003;69156;55.932;-3.238;2023-07-31T03:59:00;4;4;
79689;PMS5003;69156;55.932;-3.238;2023-07-31T04:01:25;4;4;
79689;PMS5003;69156;55.932;-3.238;2023-07-31T04:03:51;3;3;
79689;PMS5003;69156;55.932;-3.238;2023-07-31T04:06:17;4;4;
79689;PMS5003;69156;55.932;-3.238;2023-07-31T04:08:42;3;3;
79689;PMS5003;69156;55.932;-3.238;2023-07-31T04:11:07;4;4;
79689;PMS5003;69156;55.932;-3.238;2023-07-31T04:13:33;7;5;
79689;PMS5003;69156;55.932;-3.238;2023-07-31T04:15:58;4;4;
79689;PMS5003;69156;55.932;-3.238;2023-07-31T04:18:24;3;3;
79689;PMS5003;69156;55.932;-3.238;2023-07-31T04:20:50;5;4;
79689;PMS5003;69156;55.932;-3.238;2023-07-31T04:23:15;4;4;
79689;PMS5003;69156;55.932;-3.238;2023-07-31T04:25:41;4;4;
79689;PMS5003;69156;55.932;-3.238;2023-07-31T04:28:06;3;3;
79689;PMS5003;69156;55.932;-3.238;2023-07-31T04:30:32;3;3;
79689;PMS5003;69156;55.932;-3.238;2023-07-31T04:32:57;2;2;
79689;PMS5003;69156;55.932;-3.238;2023-07-31T04:35:23;3;3;
79689;PMS5003;69156;55.932;-3.238;2023-07-31T04:37:48;4;4;
79689;PMS5003;69156;55.932;-3.238;2023-07-31T04:40:13;4;4;
79689;PMS5003;69156;55.932;-3.238;2023-07-31T04:42:39;5;5;
79689;PMS5003;69156;55.932;-3.238;2023-07-31T04:45:05;4;4;
79689;PMS5003;69156;55.932;-3.238;2023-07-31T04:47:30;5;5;
79689;PMS5003;69156;55.932;-3.238;2023-07-31T04:49:56;5;5;
79689;PMS5003;69156;55.932;-3.238;2023-07-31T04:52:21;6;6;
79689;PMS5003;69156;55.932;-3.238;2023-07-31T04:54:47;4;4;
79689;PMS5003;69156;55.932;-3.238;2023-07-31T04:57:13;4;4;
79689;PMS5003;69156;55.932;-3.238;2023-07-31T04:59:38;3;3;
79689;PMS5003;69156;55.932;-3.238;2023-07-31T05:02:04;5;5;
79689;PMS5003;69156;55.932;-3.238;2023-07-31T05:04:29;3;3;
79689;PMS5003;69156;55.932;-3.238;2023-07-31T05:06:55;3;3;
79689;PMS5003;69156;55.932;-3.238;2023-07-31T05:09:20;4;4;
79689;PMS5003;69156;55.932;-3.238;2023-07-31T05:11:46;3;3;
79689;PMS5003;69156;55.932;-3.238;2023-07-31T05:14:13;4;4;
79689;PMS5003;69156;55.932;-3.238;2023-07-31T05:16:39;3;3;
79689;PMS5003;69156;55.932;-3.238;2023-07-31T05:19:04;4;4;
79689;PMS5003;69156;55.932;-3.238;2023-07-31T05:21:29;3;3;
79689;PMS5003;69156;55.932;-3.238;2023-07-31T05:23:55;2;2;
79689;PMS5003;69156;55.932;-3.238;2023-07-31T05:26:20;2;2;
79689;PMS5003;69156;55.932;-3.238;2023-07-31T05:28:47;3;3;
79689;PMS5003;69156;55.932;-3.238;2023-07-31T05:31:13;3;3;
79689;PMS5003;69156;55.932;-3.238;2023-07-31T05:33:38;2;2;
79689;PMS5003;69156;55.932;-3.238;2023-07-31T05:36:03;4;3;
79689;PMS5003;69156;55.932;-3.238;2023-07-31T05:38:28;4;4;
79689;PMS5003;69156;55.932;-3.238;2023-07-31T05:40:54;4;4;
79689;PMS5003;69156;55.932;-3.238;2023-07-31T05:43:20;3;3;
79689;PMS5003;69156;55.932;-3.238;2023-07-31T05:45:45;4;4;
79689;PMS5003;69156;55.932;-3.238;2023-07-31T05:48:10;2;2;
79689;PMS5003;69156;55.932;-3.238;2023-07-31T05:50:38;4;4;
79689;PMS5003;69156;55.932;-3.238;2023-07-31T05:53:02;3;3;
79689;PMS5003;69156;55.932;-3.238;2023-07-31T05:55:27;5;5;
79689;PMS5003;69156;55.932;-3.238;2023-07-31T05:57:54;6;5;
79689;PMS5003;69156;55.932;-3.238;2023-07-31T06:00:21;4;4;
79689;PMS5003;69156;55.932;-3.238;2023-07-31T06:02:46;5;5;
79689;PMS5003;69156;55.932;-3.238;2023-07-31T06:05:10;4;3;
79689;PMS5003;69156;55.932;-3.238;2023-07-31T06:07:43;4;4;
79689;PMS5003;69156;55.932;-3.238;2023-07-31T06:10:06;4;4;
79689;PMS5003;69156;55.932;-3.238;2023-07-31T06:12:30;5;4;
79689;PMS5003;69156;55.932;-3.238;2023-07-31T06:14:56;4;4;
79689;PMS5003;69156;55.932;-3.238;2023-07-31T06:17:21;6;4;
79689;PMS5003;69156;55.932;-3.238;2023-07-31T06:19:46;6;6;
79689;PMS5003;69156;55.932;-3.238;2023-07-31T06:22:12;5;5;
79689;PMS5003;69156;55.932;-3.238;2023-07-31T06:24:38;5;5;
79689;PMS5003;69156;55.932;-3.238;2023-07-31T06:27:03;4;4;
79689;PMS5003;69156;55.932;-3.238;2023-07-31T06:29:28;5;5;
79689;PMS5003;69156;55.932;-3.238;2023-07-31T06:31:54;3;3;
79689;PMS5003;69156;55.932;-3.238;2023-07-31T06:34:20;3;3;
79689;PMS5003;69156;55.932;-3.238;2023-07-31T06:36:45;3;3;
79689;PMS5003;69156;55.932;-3.238;2023-07-31T06:39:35;4;4;
79689;PMS5003;69156;55.932;-3.238;2023-07-31T06:42:00;3;3;
79689;PMS5003;69156;55.932;-3.238;2023-07-31T06:44:26;4;4;
79689;PMS5003;69156;55.932;-3.238;2023-07-31T06:47:01;3;3;
79689;PMS5003;69156;55.932;-3.238;2023-07-31T06:49:18;3;3;
79689;PMS5003;69156;55.932;-3.238;2023-07-31T17:15:10;1;1;
79689;PMS5003;69156;55.932;-3.238;2023-07-31T17:17:38;2;2;
79689;PMS5003;69156;55.932;-3.238;2023-07-31T17:20:06;2;2;
79689;PMS5003;69156;55.932;-3.238;2023-07-31T17:22:34;1;1;
79689;PMS5003;69156;55.932;-3.238;2023-07-31T17:25:02;1;1;
79689;PMS5003;69156;55.932;-3.238;2023-07-31T17:27:28;1;1;
79689;PMS5003;69156;55.932;-3.238;2023-07-31T17:29:57;2;2;
79689;PMS5003;69156;55.932;-3.238;2023-07-31T17:32:20;2;2;
79689;PMS5003;69156;55.932;-3.238;2023-07-31T17:34:45;2;2;
79689;PMS5003;69156;55.932;-3.238;2023-07-31T17:37:11;2;2;
79689;PMS5003;69156;55.932;-3.238;2023-07-31T17:39:36;1;1;
79689;PMS5003;69156;55.932;-3.238;2023-07-31T17:42:01;2;2;
79689;PMS5003;69156;55.932;-3.238;2023-07-31T17:44:27;1;1;
79689;PMS5003;69156;55.932;-3.238;2023-07-31T17:46:53;2;2;
79689;PMS5003;69156;55.932;-3.238;2023-07-31T17:49:18;1;1;
79689;PMS5003;69156;55.932;-3.238;2023-07-31T17:51:43;1;1;
79689;PMS5003;69156;55.932;-3.238;2023-07-31T17:54:09;3;3;
79689;PMS5003;69156;55.932;-3.238;2023-07-31T17:56:34;1;1;
79689;PMS5003;69156;55.932;-3.238;2023-07-31T17:59:00;1;1;
79689;PMS5003;69156;55.932;-3.238;2023-07-31T18:01:30;1;1;
79689;PMS5003;69156;55.932;-3.238;2023-07-31T18:03:57;0;0;
79689;PMS5003;69156;55.932;-3.238;2023-07-31T18:06:25;0;0;
79689;PMS5003;69156;55.932;-3.238;2023-07-31T18:08:54;1;1;
79689;PMS5003;69156;55.932;-3.238;2023-07-31T18:11:21;1;1;
79689;PMS5003;69156;55.932;-3.238;2023-07-31T18:13:49;1;1;
79689;PMS5003;69156;55.932;-3.238;2023-07-31T18:16:17;2;2;
79689;PMS5003;69156;55.932;-3.238;2023-07-31T18:18:45;1;1;
79689;PMS5003;69156;55.932;-3.238;2023-07-31T18:21:12;1;1;
79689;PMS5003;69156;55.932;-3.238;2023-07-31T18:23:39;1;1;
79689;PMS5003;69156;55.932;-3.238;2023-07-31T18:26:08;0;0;
79689;PMS5003;69156;55.932;-3.238;2023-07-31T18:28:35;1;1;
79689;PMS5003;69156;55.932;-3.238;2023-07-31T18:31:03;1;1;
79689;PMS5003;69156;55.932;-3.238;2023-07-31T18:33:30;1;1;
79689;PMS5003;69156;55.932;-3.238;2023-07-31T18:36:01;1;1;
79689;PMS5003;69156;55.932;-3.238;2023-07-31T18:38:25;1;1;
79689;PMS5003;69156;55.932;-3.238;2023-07-31T18:40:53;1;1;
79689;PMS5003;69156;55.932;-3.238;2023-07-31T18:43:20;1;1;
79689;PMS5003;69156;55.932;-3.238;2023-07-31T18:45:47;2;2;
79689;PMS5003;69156;55.932;-3.238;2023-07-31T18:48:14;1;1;
79689;PMS5003;69156;55.932;-3.238;2023-07-31T18:50:43;0;0;
79689;PMS5003;69156;55.932;-3.238;2023-07-31T18:53:10;1;1;
79689;PMS5003;69156;55.932;-3.238;2023-07-31T18:55:41;1;1;
79689;PMS5003;69156;55.932;-3.238;2023-07-31T18:58:06;2;2;
79689;PMS5003;69156;55.932;-3.238;2023-07-31T19:00:32;1;1;
79689;PMS5003;69156;55.932;-3.238;2023-07-31T19:02:59;1;1;
79689;PMS5003;69156;55.932;-3.238;2023-07-31T19:05:28;2;2;
79689;PMS5003;69156;55.932;-3.238;2023-07-31T19:07:55;1;1;
79689;PMS5003;69156;55.932;-3.238;2023-07-31T19:10:24;1;1;
79689;PMS5003;69156;55.932;-3.238;2023-07-31T19:12:51;1;1;
79689;PMS5003;69156;55.932;-3.238;2023-07-31T19:15:19;2;2;
79689;PMS5003;69156;55.932;-3.238;2023-07-31T19:17:44;1;1;
79689;PMS5003;69156;55.932;-3.238;2023-07-31T19:20:12;2;2;
79689;PMS5003;69156;55.932;-3.238;2023-07-31T19:22:40;1;1;
79689;PMS5003;69156;55.932;-3.238;2023-07-31T19:25:09;1;1;
79689;PMS5003;69156;55.932;-3.238;2023-07-31T19:27:37;1;1;
79689;PMS5003;69156;55.932;-3.238;2023-07-31T19:30:07;1;1;
79689;PMS5003;69156;55.932;-3.238;2023-07-31T19:32:34;1;1;
79689;PMS5003;69156;55.932;-3.238;2023-07-31T19:35:11;1;1;
79689;PMS5003;69156;55.932;-3.238;2023-07-31T19:37:29;2;2;
79689;PMS5003;69156;55.932;-3.238;2023-07-31T19:39:57;2;2;
79689;PMS5003;69156;55.932;-3.238;2023-07-31T19:42:28;1;1;
79689;PMS5003;69156;55.932;-3.238;2023-07-31T19:44:56;1;1;
79689;PMS5003;69156;55.932;-3.238;2023-07-31T19:47:22;2;2;
79689;PMS5003;69156;55.932;-3.238;2023-07-31T19:49:50;1;1;
79689;PMS5003;69156;55.932;-3.238;2023-07-31T19:52:18;2;1;
79689;PMS5003;69156;55.932;-3.238;2023-07-31T19:54:45;1;1;
79689;PMS5003;69156;55.932;-3.238;2023-07-31T19:57:11;2;2;
79689;PMS5003;69156;55.932;-3.238;2023-07-31T19:59:38;2;2;
79689;PMS5003;69156;55.932;-3.238;2023-07-31T20:02:08;1;1;
79689;PMS5003;69156;55.932;-3.238;2023-07-31T20:04:35;1;1;
79689;PMS5003;69156;55.932;-3.238;2023-07-31T20:07:02;1;1;
79689;PMS5003;69156;55.932;-3.238;2023-07-31T20:09:30;3;3;
79689;PMS5003;69156;55.932;-3.238;2023-07-31T20:11:58;2;2;
79689;PMS5003;69156;55.932;-3.238;2023-07-31T20:14:26;1;1;
79689;PMS5003;69156;55.932;-3.238;2023-07-31T20:16:54;2;2;
79689;PMS5003;69156;55.932;-3.238;2023-07-31T20:19:22;3;3;
79689;PMS5003;69156;55.932;-3.238;2023-07-31T20:21:51;3;3;
79689;PMS5003;69156;55.932;-3.238;2023-07-31T20:24:17;1;1;
79689;PMS5003;69156;55.932;-3.238;2023-07-31T20:26:43;1;1;
79689;PMS5003;69156;55.932;-3.238;2023-07-31T20:29:11;1;1;
79689;PMS5003;69156;55.932;-3.238;2023-07-31T20:31:40;2;1;
79689;PMS5003;69156;55.932;-3.238;2023-07-31T20:34:08;2;2;
79689;PMS5003;69156;55.932;-3.238;2023-07-31T20:36:36;1;1;
79689;PMS5003;69156;55.932;-3.238;2023-07-31T20:39:04;1;1;
79689;PMS5003;69156;55.932;-3.238;2023-07-31T20:41:32;2;2;
79689;PMS5003;69156;55.932;-3.238;2023-07-31T20:44:00;2;2;
79689;PMS5003;69156;55.932;-3.238;2023-07-31T20:46:28;2;2;
79689;PMS5003;69156;55.932;-3.238;2023-07-31T20:48:57;2;2;
79689;PMS5003;69156;55.932;-3.238;2023-07-31T20:51:25;2;2;
79689;PMS5003;69156;55.932;-3.238;2023-07-31T20:53:52;3;3;
79689;PMS5003;69156;55.932;-3.238;2023-07-31T20:56:20;1;1;
79689;PMS5003;69156;55.932;-3.238;2023-07-31T20:58:47;1;1;
79689;PMS5003;69156;55.932;-3.238;2023-07-31T21:01:13;2;2;
79689;PMS5003;69156;55.932;-3.238;2023-07-31T21:03:41;1;1;
79689;PMS5003;69156;55.932;-3.238;2023-07-31T21:06:09;1;1;
79689;PMS5003;69156;55.932;-3.238;2023-07-31T21:08:37;2;2;
79689;PMS5003;69156;55.932;-3.238;2023-07-31T21:11:04;1;1;
79689;PMS5003;69156;55.932;-3.238;2023-07-31T21:13:32;2;2;
79689;PMS5003;69156;55.932;-3.238;2023-07-31T21:15:58;2;2;
79689;PMS5003;69156;55.932;-3.238;2023-07-31T21:18:26;1;1;
79689;PMS5003;69156;55.932;-3.238;2023-07-31T21:20:53;2;2;
79689;PMS5003;69156;55.932;-3.238;2023-07-31T21:23:21;2;2;
79689;PMS5003;69156;55.932;-3.238;2023-07-31T21:25:50;1;1;
79689;PMS5003;69156;55.932;-3.238;2023-07-31T21:28:16;2;2;
79689;PMS5003;69156;55.932;-3.238;2023-07-31T21:30:44;1;1;
79689;PMS5003;69156;55.932;-3.238;2023-07-31T21:33:10;2;2;
79689;PMS5003;69156;55.932;-3.238;2023-07-31T21:35:38;2;2;
79689;PMS5003;69156;55.932;-3.238;2023-07-31T21:38:06;1;1;
79689;PMS5003;69156;55.932;-3.238;2023-07-31T21:40:34;2;2;
79689;PMS5003;69156;55.932;-3.238;2023-07-31T21:43:02;1;1;
79689;PMS5003;69156;55.932;-3.238;2023-07-31T21:45:29;2;2;
79689;PMS5003;69156;55.932;-3.238;2023-07-31T21:47:55;2;2;
79689;PMS5003;69156;55.932;-3.238;2023-07-31T21:50:23;3;2;
79689;PMS5003;69156;55.932;-3.238;2023-07-31T21:52:50;1;1;
79689;PMS5003;69156;55.932;-3.238;2023-07-31T21:55:18;1;1;
79689;PMS5003;69156;55.932;-3.238;2023-07-31T21:57:45;1;1;
79689;PMS5003;69156;55.932;-3.238;2023-07-31T22:00:12;2;2;
79689;PMS5003;69156;55.932;-3.238;2023-07-31T22:02:39;1;1;
